Wilkinsburg, Pennsylvania
Current Conditions -  °F | °C
As of 10:40 AM on Friday 19 Dec 2014 (Local Time) from KAGC Reporting Station
Light Snow Light Snow  
Wind Chill: 22°   Ceiling: 1000
Heat Index: 28°   Visibility: 2.5mi
Dew Point: 23°   Wind: 6mph
Humidity: 81%   Direction: 270°W
Pressure: 30.19"   Gusts: NA
Location:  40.44°N, 79.88°W
Report Text: KAGC 191540Z 27005KT 2 1/2SM -SN BR BKN010 OVC017 M02/M05 A3019 RMK AO2 SNB1456E05B40 CIG 007V011 P0000 T10221050
Loading
Personal Weather Stations






























Interactive Weather Map New forecast layout! Learn more

10-Day Weather Forecast

Advertisements
Track Severe Weather on mobile